sensor_id;sensor_type;location;lat;lon;timestamp;pressure;altitude;pressure_sealevel;temperature;humidity
80682;BME280;70045;40.200;44.582;2023-09-19T00:00:58;86599.50;;;16.10;40.06
80682;BME280;70045;40.200;44.582;2023-09-19T00:03:23;86599.25;;;16.17;39.91
80682;BME280;70045;40.200;44.582;2023-09-19T00:05:52;86596.06;;;16.23;39.88
80682;BME280;70045;40.200;44.582;2023-09-19T00:08:17;86596.69;;;16.27;39.67
80682;BME280;70045;40.200;44.582;2023-09-19T00:10:43;86600.75;;;16.28;39.63
80682;BME280;70045;40.200;44.582;2023-09-19T00:13:09;86587.47;;;16.13;39.83
80682;BME280;70045;40.200;44.582;2023-09-19T00:15:43;86600.53;;;16.13;39.83
80682;BME280;70045;40.200;44.582;2023-09-19T00:18:12;86600.03;;;16.05;39.85
80682;BME280;70045;40.200;44.582;2023-09-19T00:20:37;86598.09;;;15.96;40.13
80682;BME280;70045;40.200;44.582;2023-09-19T00:23:04;86597.94;;;15.91;40.07
80682;BME280;70045;40.200;44.582;2023-09-19T00:25:29;86594.81;;;15.83;40.12
80682;BME280;70045;40.200;44.582;2023-09-19T00:27:55;86588.91;;;15.70;40.66
80682;BME280;70045;40.200;44.582;2023-09-19T00:30:23;86595.09;;;15.63;41.08
80682;BME280;70045;40.200;44.582;2023-09-19T00:32:49;86595.50;;;15.61;41.23
80682;BME280;70045;40.200;44.582;2023-09-19T00:35:15;86599.38;;;15.57;41.10
80682;BME280;70045;40.200;44.582;2023-09-19T00:37:40;86600.56;;;15.56;41.18
80682;BME280;70045;40.200;44.582;2023-09-19T00:40:07;86604.50;;;15.60;41.29
80682;BME280;70045;40.200;44.582;2023-09-19T00:42:35;86598.13;;;15.61;41.22
80682;BME280;70045;40.200;44.582;2023-09-19T00:45:01;86600.47;;;15.47;41.65
80682;BME280;70045;40.200;44.582;2023-09-19T00:47:27;86601.75;;;15.42;41.46
80682;BME280;70045;40.200;44.582;2023-09-19T00:49:53;86606.22;;;15.41;41.39
80682;BME280;70045;40.200;44.582;2023-09-19T00:52:19;86605.81;;;15.43;42.22
80682;BME280;70045;40.200;44.582;2023-09-19T00:54:47;86605.81;;;15.43;42.59
80682;BME280;70045;40.200;44.582;2023-09-19T00:57:14;86604.13;;;15.49;41.92
80682;BME280;70045;40.200;44.582;2023-09-19T00:59:39;86601.53;;;15.49;42.41
80682;BME280;70045;40.200;44.582;2023-09-19T01:02:04;86609.25;;;15.53;42.25
80682;BME280;70045;40.200;44.582;2023-09-19T01:04:31;86605.91;;;15.52;42.33
80682;BME280;70045;40.200;44.582;2023-09-19T01:06:59;86607.34;;;15.53;42.78
80682;BME280;70045;40.200;44.582;2023-09-19T01:09:25;86611.84;;;15.53;42.72
80682;BME280;70045;40.200;44.582;2023-09-19T01:11:51;86617.00;;;15.43;42.86
80682;BME280;70045;40.200;44.582;2023-09-19T01:14:24;86613.88;;;15.36;43.41
80682;BME280;70045;40.200;44.582;2023-09-19T01:17:17;86615.88;;;15.32;43.93
80682;BME280;70045;40.200;44.582;2023-09-19T01:20:05;86621.66;;;15.27;43.67
80682;BME280;70045;40.200;44.582;2023-09-19T01:28:20;86624.56;;;15.29;43.69
80682;BME280;70045;40.200;44.582;2023-09-19T01:30:47;86615.81;;;15.22;43.13
80682;BME280;70045;40.200;44.582;2023-09-19T01:33:16;86620.50;;;15.28;43.67
80682;BME280;70045;40.200;44.582;2023-09-19T01:35:42;86626.16;;;15.26;43.01
80682;BME280;70045;40.200;44.582;2023-09-19T01:38:10;86626.88;;;15.27;43.54
80682;BME280;70045;40.200;44.582;2023-09-19T01:40:41;86632.09;;;15.27;43.79
80682;BME280;70045;40.200;44.582;2023-09-19T01:43:25;86636.19;;;15.28;43.64
80682;BME280;70045;40.200;44.582;2023-09-19T01:49:02;86636.38;;;15.20;43.69
80682;BME280;70045;40.200;44.582;2023-09-19T01:51:37;86636.38;;;15.20;43.90
80682;BME280;70045;40.200;44.582;2023-09-19T01:54:12;86637.44;;;15.23;43.56
80682;BME280;70045;40.200;44.582;2023-09-19T01:56:57;86641.28;;;15.18;44.50
80682;BME280;70045;40.200;44.582;2023-09-19T01:59:34;86635.34;;;15.18;44.80
80682;BME280;70045;40.200;44.582;2023-09-19T02:02:00;86625.25;;;15.07;44.05
80682;BME280;70045;40.200;44.582;2023-09-19T02:04:27;86632.75;;;15.05;45.42
80682;BME280;70045;40.200;44.582;2023-09-19T02:06:53;86633.59;;;15.02;44.41
80682;BME280;70045;40.200;44.582;2023-09-19T02:09:18;86640.91;;;14.94;44.99
80682;BME280;70045;40.200;44.582;2023-09-19T02:11:46;86637.38;;;14.88;46.25
80682;BME280;70045;40.200;44.582;2023-09-19T02:14:12;86639.97;;;14.88;45.61
80682;BME280;70045;40.200;44.582;2023-09-19T02:16:37;86650.31;;;14.92;45.91
80682;BME280;70045;40.200;44.582;2023-09-19T02:19:03;86649.66;;;14.87;45.01
80682;BME280;70045;40.200;44.582;2023-09-19T02:21:28;86649.56;;;14.91;45.58
80682;BME280;70045;40.200;44.582;2023-09-19T02:23:56;86652.28;;;14.87;46.07
80682;BME280;70045;40.200;44.582;2023-09-19T02:26:21;86655.53;;;14.92;45.85
80682;BME280;70045;40.200;44.582;2023-09-19T02:28:47;86662.19;;;14.93;45.57
80682;BME280;70045;40.200;44.582;2023-09-19T02:31:12;86659.28;;;14.91;45.70
80682;BME280;70045;40.200;44.582;2023-09-19T02:33:38;86660.34;;;14.93;45.70
80682;BME280;70045;40.200;44.582;2023-09-19T02:36:06;86665.16;;;14.95;47.02
80682;BME280;70045;40.200;44.582;2023-09-19T02:38:31;86663.78;;;14.90;46.26
80682;BME280;70045;40.200;44.582;2023-09-19T02:40:57;86666.81;;;14.88;46.24
80682;BME280;70045;40.200;44.582;2023-09-19T02:43:22;86663.06;;;14.90;45.94
80682;BME280;70045;40.200;44.582;2023-09-19T02:45:48;86666.81;;;14.88;46.20
80682;BME280;70045;40.200;44.582;2023-09-19T02:48:17;86671.19;;;14.92;47.04
80682;BME280;70045;40.200;44.582;2023-09-19T02:50:42;86671.19;;;14.92;46.35
80682;BME280;70045;40.200;44.582;2023-09-19T02:53:08;86674.94;;;14.91;46.10
80682;BME280;70045;40.200;44.582;2023-09-19T02:55:33;86675.16;;;14.96;45.77
80682;BME280;70045;40.200;44.582;2023-09-19T02:57:59;86677.34;;;14.98;46.08
80682;BME280;70045;40.200;44.582;2023-09-19T03:00:27;86679.94;;;14.98;47.52
80682;BME280;70045;40.200;44.582;2023-09-19T03:02:56;86685.50;;;15.00;47.31
80682;BME280;70045;40.200;44.582;2023-09-19T03:05:22;86693.88;;;14.95;46.23
80682;BME280;70045;40.200;44.582;2023-09-19T03:07:48;86695.09;;;14.90;47.20
80682;BME280;70045;40.200;44.582;2023-09-19T03:10:13;86691.53;;;14.84;46.99
80682;BME280;70045;40.200;44.582;2023-09-19T03:12:41;86686.13;;;14.78;47.30
80682;BME280;70045;40.200;44.582;2023-09-19T03:15:07;86689.78;;;14.81;47.28
80682;BME280;70045;40.200;44.582;2023-09-19T03:17:32;86695.09;;;14.90;47.05
80682;BME280;70045;40.200;44.582;2023-09-19T03:19:58;86691.56;;;14.97;46.79
80682;BME280;70045;40.200;44.582;2023-09-19T03:22:23;86693.53;;;15.05;46.90
80682;BME280;70045;40.200;44.582;2023-09-19T03:24:51;86699.56;;;15.15;46.82
80682;BME280;70045;40.200;44.582;2023-09-19T03:27:17;86693.22;;;15.16;47.64
80682;BME280;70045;40.200;44.582;2023-09-19T03:29:42;86701.47;;;15.15;47.02
80682;BME280;70045;40.200;44.582;2023-09-19T03:32:08;86713.91;;;15.11;47.66
80682;BME280;70045;40.200;44.582;2023-09-19T03:34:33;86705.84;;;15.05;46.83
80682;BME280;70045;40.200;44.582;2023-09-19T03:37:03;86702.94;;;15.03;48.44
80682;BME280;70045;40.200;44.582;2023-09-19T03:39:29;86715.25;;;15.02;48.39
80682;BME280;70045;40.200;44.582;2023-09-19T03:41:54;86714.41;;;14.93;48.57
80682;BME280;70045;40.200;44.582;2023-09-19T03:44:19;86720.38;;;14.93;49.00
80682;BME280;70045;40.200;44.582;2023-09-19T03:46:45;86720.28;;;14.97;48.19
80682;BME280;70045;40.200;44.582;2023-09-19T03:49:13;86726.00;;;15.04;48.22
80682;BME280;70045;40.200;44.582;2023-09-19T03:51:38;86724.88;;;15.18;47.38
80682;BME280;70045;40.200;44.582;2023-09-19T03:54:04;86724.66;;;15.25;47.78
80682;BME280;70045;40.200;44.582;2023-09-19T03:56:29;86727.38;;;15.35;47.19
80682;BME280;70045;40.200;44.582;2023-09-19T03:58:54;86728.59;;;15.43;47.06
80682;BME280;70045;40.200;44.582;2023-09-19T04:01:23;86732.78;;;15.53;47.42
80682;BME280;70045;40.200;44.582;2023-09-19T04:03:48;86733.19;;;15.65;46.21
80682;BME280;70045;40.200;44.582;2023-09-19T04:06:14;86732.47;;;15.77;46.16
80682;BME280;70045;40.200;44.582;2023-09-19T04:08:40;86721.47;;;15.82;45.96
80682;BME280;70045;40.200;44.582;2023-09-19T04:11:06;86731.69;;;15.89;45.98
80682;BME280;70045;40.200;44.582;2023-09-19T04:13:34;86732.63;;;15.95;46.06
80682;BME280;70045;40.200;44.582;2023-09-19T04:15:59;86738.53;;;16.09;45.29
80682;BME280;70045;40.200;44.582;2023-09-19T04:18:25;86733.38;;;16.18;45.15
80682;BME280;70045;40.200;44.582;2023-09-19T04:20:51;86731.44;;;16.31;44.86
80682;BME280;70045;40.200;44.582;2023-09-19T04:23:17;86741.34;;;16.36;44.76
80682;BME280;70045;40.200;44.582;2023-09-19T04:25:45;86738.38;;;16.47;44.42
80682;BME280;70045;40.200;44.582;2023-09-19T04:28:10;86738.31;;;16.60;44.13
80682;BME280;70045;40.200;44.582;2023-09-19T04:30:36;86741.13;;;16.66;44.13
80682;BME280;70045;40.200;44.582;2023-09-19T04:33:01;86737.81;;;16.74;43.82
80682;BME280;70045;40.200;44.582;2023-09-19T04:35:26;86743.34;;;16.89;43.83
80682;BME280;70045;40.200;44.582;2023-09-19T04:37:55;86746.59;;;17.03;43.62
80682;BME280;70045;40.200;44.582;2023-09-19T04:40:20;86751.13;;;17.11;43.30
80682;BME280;70045;40.200;44.582;2023-09-19T04:42:52;86750.78;;;17.22;43.23
80682;BME280;70045;40.200;44.582;2023-09-19T04:45:18;86751.22;;;17.30;43.14
80682;BME280;70045;40.200;44.582;2023-09-19T04:47:43;86753.56;;;17.37;42.85
80682;BME280;70045;40.200;44.582;2023-09-19T04:50:09;86755.06;;;17.47;42.87
80682;BME280;70045;40.200;44.582;2023-09-19T04:52:34;86747.47;;;17.40;42.55
80682;BME280;70045;40.200;44.582;2023-09-19T04:55:00;86754.81;;;17.55;42.27
80682;BME280;70045;40.200;44.582;2023-09-19T04:57:25;86760.53;;;17.62;42.68
80682;BME280;70045;40.200;44.582;2023-09-19T04:59:55;86758.34;;;17.70;42.18
80682;BME280;70045;40.200;44.582;2023-09-19T05:02:20;86768.56;;;17.77;42.35
80682;BME280;70045;40.200;44.582;2023-09-19T05:04:45;86763.94;;;17.81;42.14
80682;BME280;70045;40.200;44.582;2023-09-19T05:07:11;86757.56;;;17.92;42.08
80682;BME280;70045;40.200;44.582;2023-09-19T05:09:36;86755.09;;;17.97;41.78
80682;BME280;70045;40.200;44.582;2023-09-19T05:12:05;86762.25;;;18.06;41.54
80682;BME280;70045;40.200;44.582;2023-09-19T05:14:30;86764.31;;;18.11;41.48
80682;BME280;70045;40.200;44.582;2023-09-19T05:16:55;86769.84;;;18.22;41.34
80682;BME280;70045;40.200;44.582;2023-09-19T05:19:21;86772.63;;;18.28;41.15
80682;BME280;70045;40.200;44.582;2023-09-19T05:21:46;86767.81;;;18.36;40.95
80682;BME280;70045;40.200;44.582;2023-09-19T05:24:14;86764.19;;;18.42;40.79
80682;BME280;70045;40.200;44.582;2023-09-19T05:26:40;86766.06;;;18.51;40.87
80682;BME280;70045;40.200;44.582;2023-09-19T05:29:05;86765.78;;;18.49;40.67
80682;BME280;70045;40.200;44.582;2023-09-19T05:31:31;86773.81;;;18.55;40.79
80682;BME280;70045;40.200;44.582;2023-09-19T05:33:56;86770.00;;;18.65;40.43
80682;BME280;70045;40.200;44.582;2023-09-19T05:36:28;86778.31;;;18.73;40.00
80682;BME280;70045;40.200;44.582;2023-09-19T05:38:53;86774.38;;;18.77;40.49
80682;BME280;70045;40.200;44.582;2023-09-19T05:41:18;86776.44;;;18.83;40.09
80682;BME280;70045;40.200;44.582;2023-09-19T05:43:44;86785.34;;;18.85;39.88
80682;BME280;70045;40.200;44.582;2023-09-19T05:46:09;86783.88;;;18.84;39.87
80682;BME280;70045;40.200;44.582;2023-09-19T05:48:37;86766.53;;;18.68;40.14
80682;BME280;70045;40.200;44.582;2023-09-19T05:51:03;86783.03;;;18.87;39.95
80682;BME280;70045;40.200;44.582;2023-09-19T05:53:28;86784.75;;;18.90;40.05
80682;BME280;70045;40.200;44.582;2023-09-19T05:55:54;86782.72;;;18.94;39.71
80682;BME280;70045;40.200;44.582;2023-09-19T05:58:19;86780.22;;;19.00;39.96
80682;BME280;70045;40.200;44.582;2023-09-19T06:00:47;86781.84;;;18.97;39.84
80682;BME280;70045;40.200;44.582;2023-09-19T06:03:13;86765.78;;;18.86;39.80
80682;BME280;70045;40.200;44.582;2023-09-19T06:05:38;86788.84;;;19.10;39.60
80682;BME280;70045;40.200;44.582;2023-09-19T06:08:04;86790.56;;;19.22;39.57
80682;BME280;70045;40.200;44.582;2023-09-19T06:10:33;86786.59;;;19.36;39.19
80682;BME280;70045;40.200;44.582;2023-09-19T06:13:03;86794.31;;;19.40;38.94
80682;BME280;70045;40.200;44.582;2023-09-19T06:15:28;86790.66;;;19.37;39.01
80682;BME280;70045;40.200;44.582;2023-09-19T06:17:55;86788.00;;;19.46;38.86
80682;BME280;70045;40.200;44.582;2023-09-19T06:20:21;86792.63;;;19.61;38.56
80682;BME280;70045;40.200;44.582;2023-09-19T06:22:46;86780.22;;;19.61;37.88
80682;BME280;70045;40.200;44.582;2023-09-19T06:25:16;86789.84;;;19.64;37.93
80682;BME280;70045;40.200;44.582;2023-09-19T06:27:41;86787.78;;;19.68;37.67
80682;BME280;70045;40.200;44.582;2023-09-19T06:30:07;86775.81;;;19.67;38.35
80682;BME280;70045;40.200;44.582;2023-09-19T06:32:33;86775.34;;;19.78;38.19
80682;BME280;70045;40.200;44.582;2023-09-19T06:34:58;86782.59;;;19.92;37.63
80682;BME280;70045;40.200;44.582;2023-09-19T06:37:28;86779.97;;;19.92;37.60
80682;BME280;70045;40.200;44.582;2023-09-19T06:39:54;86780.94;;;20.04;37.29
80682;BME280;70045;40.200;44.582;2023-09-19T06:42:19;86785.63;;;20.00;36.96
80682;BME280;70045;40.200;44.582;2023-09-19T06:44:45;86785.47;;;20.04;36.97
80682;BME280;70045;40.200;44.582;2023-09-19T06:47:13;86781.94;;;20.07;36.61
80682;BME280;70045;40.200;44.582;2023-09-19T06:49:42;86787.78;;;20.11;36.31
80682;BME280;70045;40.200;44.582;2023-09-19T06:52:07;86789.38;;;20.08;36.30
80682;BME280;70045;40.200;44.582;2023-09-19T06:54:32;86778.03;;;20.02;35.58
80682;BME280;70045;40.200;44.582;2023-09-19T06:56:58;86785.81;;;19.97;36.38
80682;BME280;70045;40.200;44.582;2023-09-19T06:59:24;86774.25;;;19.94;36.20
80682;BME280;70045;40.200;44.582;2023-09-19T07:01:52;86780.53;;;19.97;36.34
80682;BME280;70045;40.200;44.582;2023-09-19T07:04:17;86776.28;;;19.99;36.08
80682;BME280;70045;40.200;44.582;2023-09-19T07:06:43;86777.13;;;20.05;35.99
80682;BME280;70045;40.200;44.582;2023-09-19T07:09:08;86784.97;;;20.15;35.80
80682;BME280;70045;40.200;44.582;2023-09-19T07:11:34;86774.69;;;20.26;36.40
80682;BME280;70045;40.200;44.582;2023-09-19T07:14:02;86776.00;;;20.45;35.63
80682;BME280;70045;40.200;44.582;2023-09-19T07:16:28;86770.75;;;20.45;35.66
80682;BME280;70045;40.200;44.582;2023-09-19T07:18:54;86770.13;;;20.50;35.54
80682;BME280;70045;40.200;44.582;2023-09-19T07:21:19;86768.88;;;20.61;35.34
80682;BME280;70045;40.200;44.582;2023-09-19T07:23:44;86759.75;;;20.71;35.37
80682;BME280;70045;40.200;44.582;2023-09-19T07:26:13;86766.34;;;20.91;35.01
80682;BME280;70045;40.200;44.582;2023-09-19T07:28:38;86764.81;;;20.99;35.04
80682;BME280;70045;40.200;44.582;2023-09-19T07:31:03;86763.06;;;21.11;34.81
80682;BME280;70045;40.200;44.582;2023-09-19T07:33:29;86764.16;;;21.19;34.46
80682;BME280;70045;40.200;44.582;2023-09-19T07:35:54;86767.06;;;21.21;34.40
80682;BME280;70045;40.200;44.582;2023-09-19T07:38:22;86764.72;;;21.38;34.40
80682;BME280;70045;40.200;44.582;2023-09-19T07:40:48;86748.38;;;21.34;34.14
80682;BME280;70045;40.200;44.582;2023-09-19T07:43:13;86764.97;;;21.40;33.71
80682;BME280;70045;40.200;44.582;2023-09-19T07:45:39;86767.53;;;21.34;34.01
80682;BME280;70045;40.200;44.582;2023-09-19T07:48:05;86759.44;;;21.23;33.77
80682;BME280;70045;40.200;44.582;2023-09-19T07:50:36;86759.63;;;21.19;33.79
80682;BME280;70045;40.200;44.582;2023-09-19T07:53:01;86754.34;;;21.19;33.74
80682;BME280;70045;40.200;44.582;2023-09-19T07:55:27;86755.97;;;21.32;33.93
80682;BME280;70045;40.200;44.582;2023-09-19T07:57:52;86742.00;;;21.40;33.79
80682;BME280;70045;40.200;44.582;2023-09-19T08:00:18;86754.38;;;21.49;33.03
80682;BME280;70045;40.200;44.582;2023-09-19T08:02:46;86748.19;;;21.52;33.00
80682;BME280;70045;40.200;44.582;2023-09-19T08:05:12;86753.00;;;21.39;33.01
80682;BME280;70045;40.200;44.582;2023-09-19T08:07:39;86743.34;;;21.51;32.93
80682;BME280;70045;40.200;44.582;2023-09-19T08:10:06;86740.31;;;21.73;32.80
80682;BME280;70045;40.200;44.582;2023-09-19T08:12:31;86741.00;;;22.03;32.76
80682;BME280;70045;40.200;44.582;2023-09-19T08:14:59;86741.75;;;22.24;32.41
80682;BME280;70045;40.200;44.582;2023-09-19T08:17:25;86736.22;;;22.43;31.89
80682;BME280;70045;40.200;44.582;2023-09-19T08:19:50;86726.28;;;22.79;31.32
80682;BME280;70045;40.200;44.582;2023-09-19T08:22:16;86730.31;;;23.21;30.62
80682;BME280;70045;40.200;44.582;2023-09-19T08:24:41;86724.09;;;23.82;28.97
80682;BME280;70045;40.200;44.582;2023-09-19T08:27:06;86721.38;;;24.57;28.88
80682;BME280;70045;40.200;44.582;2023-09-19T08:29:32;86721.38;;;25.28;28.29
80682;BME280;70045;40.200;44.582;2023-09-19T08:31:57;86724.28;;;26.15;27.01
80682;BME280;70045;40.200;44.582;2023-09-19T08:34:24;86720.00;;;26.88;26.11
80682;BME280;70045;40.200;44.582;2023-09-19T08:36:54;86725.09;;;27.27;24.50
80682;BME280;70045;40.200;44.582;2023-09-19T08:39:19;86715.06;;;27.50;25.30
80682;BME280;70045;40.200;44.582;2023-09-19T08:41:45;86715.84;;;28.11;24.99
80682;BME280;70045;40.200;44.582;2023-09-19T08:44:10;86710.34;;;28.78;24.82
80682;BME280;70045;40.200;44.582;2023-09-19T08:46:37;86712.00;;;29.43;21.84
80682;BME280;70045;40.200;44.582;2023-09-19T08:49:24;86706.69;;;30.08;21.24
80682;BME280;70045;40.200;44.582;2023-09-19T08:52:04;86713.56;;;30.49;21.23
80682;BME280;70045;40.200;44.582;2023-09-19T08:54:35;86706.16;;;30.82;20.84
80682;BME280;70045;40.200;44.582;2023-09-19T08:57:06;86702.88;;;31.03;19.89
80682;BME280;70045;40.200;44.582;2023-09-19T08:59:39;86705.44;;;31.22;19.98
80682;BME280;70045;40.200;44.582;2023-09-19T09:02:14;86697.97;;;31.41;20.01
80682;BME280;70045;40.200;44.582;2023-09-19T09:04:41;86690.91;;;31.65;21.08
80682;BME280;70045;40.200;44.582;2023-09-19T09:07:12;86694.22;;;32.13;19.23
80682;BME280;70045;40.200;44.582;2023-09-19T09:09:40;86680.28;;;32.15;18.87
80682;BME280;70045;40.200;44.582;2023-09-19T09:12:06;86677.25;;;32.39;19.81
80682;BME280;70045;40.200;44.582;2023-09-19T09:14:31;86678.59;;;32.82;19.92
80682;BME280;70045;40.200;44.582;2023-09-19T09:16:56;86680.63;;;33.26;19.65
80682;BME280;70045;40.200;44.582;2023-09-19T09:19:22;86676.72;;;33.35;17.93
80682;BME280;70045;40.200;44.582;2023-09-19T09:21:51;86679.06;;;34.06;19.23
80682;BME280;70045;40.200;44.582;2023-09-19T09:24:31;86673.53;;;34.27;17.80
80682;BME280;70045;40.200;44.582;2023-09-19T09:26:57;86667.59;;;34.59;18.46
80682;BME280;70045;40.200;44.582;2023-09-19T09:37:16;86665.44;;;34.81;15.23
80682;BME280;70045;40.200;44.582;2023-09-19T09:39:49;86672.97;;;34.59;16.89
80682;BME280;70045;40.200;44.582;2023-09-19T09:42:32;86663.66;;;34.52;15.56
80682;BME280;70045;40.200;44.582;2023-09-19T09:45:27;86661.97;;;35.03;15.85
80682;BME280;70045;40.200;44.582;2023-09-19T09:47:52;86656.03;;;35.61;16.43
80682;BME280;70045;40.200;44.582;2023-09-19T09:52:59;86653.59;;;35.80;15.59
80682;BME280;70045;40.200;44.582;2023-09-19T09:55:25;86640.50;;;35.69;15.43
80682;BME280;70045;40.200;44.582;2023-09-19T09:58:16;86654.50;;;35.42;14.41
80682;BME280;70045;40.200;44.582;2023-09-19T10:00:53;86647.53;;;35.72;14.84
80682;BME280;70045;40.200;44.582;2023-09-19T10:03:21;86641.78;;;36.51;14.42
80682;BME280;70045;40.200;44.582;2023-09-19T10:05:53;86644.97;;;35.41;13.89
80682;BME280;70045;40.200;44.582;2023-09-19T10:08:19;86634.91;;;34.78;14.62
80682;BME280;70045;40.200;44.582;2023-09-19T10:10:44;86643.94;;;35.29;16.04
80682;BME280;70045;40.200;44.582;2023-09-19T10:13:14;86636.63;;;35.14;14.34
80682;BME280;70045;40.200;44.582;2023-09-19T10:15:43;86636.50;;;35.86;14.52
80682;BME280;70045;40.200;44.582;2023-09-19T10:18:11;86629.84;;;36.37;14.80
80682;BME280;70045;40.200;44.582;2023-09-19T10:20:37;86623.03;;;36.36;14.25
80682;BME280;70045;40.200;44.582;2023-09-19T10:23:10;86629.16;;;36.79;14.66
80682;BME280;70045;40.200;44.582;2023-09-19T10:25:37;86626.16;;;37.27;13.83
80682;BME280;70045;40.200;44.582;2023-09-19T10:28:10;86613.47;;;37.47;12.84
80682;BME280;70045;40.200;44.582;2023-09-19T10:30:44;86624.59;;;36.82;13.17
80682;BME280;70045;40.200;44.582;2023-09-19T10:33:11;86622.69;;;37.44;13.63
80682;BME280;70045;40.200;44.582;2023-09-19T10:35:42;86616.13;;;37.20;12.96
80682;BME280;70045;40.200;44.582;2023-09-19T10:38:12;86618.59;;;36.48;13.59
80682;BME280;70045;40.200;44.582;2023-09-19T10:40:39;86617.84;;;35.39;14.28
80682;BME280;70045;40.200;44.582;2023-09-19T10:43:05;86612.22;;;35.04;15.09
80682;BME280;70045;40.200;44.582;2023-09-19T10:45:34;86614.13;;;33.86;16.39
80682;BME280;70045;40.200;44.582;2023-09-19T10:48:00;86604.66;;;32.74;16.62
80682;BME280;70045;40.200;44.582;2023-09-19T10:50:33;86600.00;;;31.67;18.28
80682;BME280;70045;40.200;44.582;2023-09-19T10:53:01;86611.03;;;32.34;17.41
80682;BME280;70045;40.200;44.582;2023-09-19T10:55:27;86608.94;;;33.81;15.91
80682;BME280;70045;40.200;44.582;2023-09-19T10:57:53;86603.13;;;35.33;15.63
80682;BME280;70045;40.200;44.582;2023-09-19T11:00:19;86585.16;;;36.61;15.18
80682;BME280;70045;40.200;44.582;2023-09-19T11:05:35;86599.28;;;36.77;13.97
80682;BME280;70045;40.200;44.582;2023-09-19T11:08:00;86597.16;;;37.38;14.18
80682;BME280;70045;40.200;44.582;2023-09-19T11:10:48;86585.00;;;38.11;12.25
80682;BME280;70045;40.200;44.582;2023-09-19T11:13:27;86590.84;;;38.54;11.57
80682;BME280;70045;40.200;44.582;2023-09-19T11:21:51;86588.06;;;39.01;11.86
80682;BME280;70045;40.200;44.582;2023-09-19T11:26:46;86578.53;;;39.09;12.50
80682;BME280;70045;40.200;44.582;2023-09-19T11:29:30;86575.22;;;39.40;11.43
80682;BME280;70045;40.200;44.582;2023-09-19T11:31:56;86582.06;;;39.02;11.64
80682;BME280;70045;40.200;44.582;2023-09-19T11:39:51;86571.75;;;38.52;12.42
80682;BME280;70045;40.200;44.582;2023-09-19T11:42:55;86576.72;;;39.82;11.12
80682;BME280;70045;40.200;44.582;2023-09-19T11:48:05;86571.28;;;40.86;10.68
80682;BME280;70045;40.200;44.582;2023-09-19T11:50:32;86570.38;;;41.36;11.34
80682;BME280;70045;40.200;44.582;2023-09-19T11:52:58;86555.63;;;41.51;10.29
80682;BME280;70045;40.200;44.582;2023-09-19T11:55:31;86568.56;;;40.64;10.07
80682;BME280;70045;40.200;44.582;2023-09-19T11:57:57;86563.22;;;40.45;11.46
80682;BME280;70045;40.200;44.582;2023-09-19T12:00:22;86555.47;;;40.51;11.55
80682;BME280;70045;40.200;44.582;2023-09-19T12:02:49;86554.31;;;40.54;10.38
80682;BME280;70045;40.200;44.582;2023-09-19T12:05:30;86554.88;;;41.17;9.67
80682;BME280;70045;40.200;44.582;2023-09-19T12:07:56;86555.41;;;41.59;10.54
80682;BME280;70045;40.200;44.582;2023-09-19T12:10:25;86562.50;;;42.09;10.53
80682;BME280;70045;40.200;44.582;2023-09-19T12:12:50;86554.47;;;42.11;10.40
80682;BME280;70045;40.200;44.582;2023-09-19T12:15:23;86561.91;;;42.46;9.95
80682;BME280;70045;40.200;44.582;2023-09-19T12:17:52;86559.31;;;42.48;10.45
80682;BME280;70045;40.200;44.582;2023-09-19T12:20:17;86559.81;;;42.45;10.18
80682;BME280;70045;40.200;44.582;2023-09-19T12:22:44;86563.59;;;42.51;10.30
80682;BME280;70045;40.200;44.582;2023-09-19T12:25:10;86544.47;;;41.81;10.34
80682;BME280;70045;40.200;44.582;2023-09-19T12:28:04;86554.00;;;41.58;9.83
80682;BME280;70045;40.200;44.582;2023-09-19T12:30:30;86557.72;;;41.08;10.78
80682;BME280;70045;40.200;44.582;2023-09-19T12:32:56;86543.94;;;40.62;10.52
80682;BME280;70045;40.200;44.582;2023-09-19T12:35:32;86553.81;;;40.89;10.56
80682;BME280;70045;40.200;44.582;2023-09-19T12:37:58;86545.38;;;41.28;10.52
80682;BME280;70045;40.200;44.582;2023-09-19T12:40:27;86539.63;;;41.46;10.46
80682;BME280;70045;40.200;44.582;2023-09-19T12:42:53;86553.00;;;41.42;11.13
80682;BME280;70045;40.200;44.582;2023-09-19T12:45:19;86543.72;;;41.68;10.39
80682;BME280;70045;40.200;44.582;2023-09-19T12:48:23;86557.75;;;41.98;9.75
80682;BME280;70045;40.200;44.582;2023-09-19T12:51:11;86553.69;;;41.42;9.86
80682;BME280;70045;40.200;44.582;2023-09-19T12:53:41;86550.66;;;40.08;11.17
80682;BME280;70045;40.200;44.582;2023-09-19T12:56:07;86552.56;;;40.59;10.91
80682;BME280;70045;40.200;44.582;2023-09-19T12:58:32;86556.25;;;39.50;11.26
80682;BME280;70045;40.200;44.582;2023-09-19T13:01:01;86551.69;;;38.74;12.15
80682;BME280;70045;40.200;44.582;2023-09-19T13:03:27;86546.13;;;38.92;12.07
80682;BME280;70045;40.200;44.582;2023-09-19T13:05:58;86550.84;;;39.01;12.13
80682;BME280;70045;40.200;44.582;2023-09-19T13:08:31;86554.59;;;38.20;11.81
80682;BME280;70045;40.200;44.582;2023-09-19T13:11:17;86551.28;;;38.12;12.37
80682;BME280;70045;40.200;44.582;2023-09-19T13:17:03;86550.66;;;39.67;11.84
80682;BME280;70045;40.200;44.582;2023-09-19T13:22:42;86548.56;;;39.87;11.27
80682;BME280;70045;40.200;44.582;2023-09-19T13:25:16;86551.94;;;39.66;11.28
80682;BME280;70045;40.200;44.582;2023-09-19T13:27:44;86543.97;;;39.59;11.60
80682;BME280;70045;40.200;44.582;2023-09-19T13:30:10;86538.88;;;39.14;12.14
80682;BME280;70045;40.200;44.582;2023-09-19T13:32:39;86539.25;;;38.05;12.25
80682;BME280;70045;40.200;44.582;2023-09-19T13:35:05;86542.13;;;37.43;13.27
80682;BME280;70045;40.200;44.582;2023-09-19T13:37:30;86529.28;;;37.16;13.11
80682;BME280;70045;40.200;44.582;2023-09-19T13:39:56;86526.31;;;37.39;13.21